Time;durP1;ratioP1;P1;durP2;ratioP2;P2;SDS_P1;SDS_P2;PMS_P1;PMS_P2;Temp;Humidity;BMP_temperature;BMP_pressure;BME280_temperature;BME280_humidity;BME280_pressure;Samples;Min_cycle;Max_cycle;Signal;HPM_P1;HPM_P2
2022/01/21 00:00:45;;;;;;;11.32;2.63;;;0.60;99.90;;;;;;5034706;28;20025;-77
2022/01/21 00:03:10;;;;;;;8.95;2.65;;;0.80;99.90;;;;;;5056905;28;20041;-78
2022/01/21 00:05:36;;;;;;;12.27;3.20;;;0.70;99.90;;;;;;5057657;28;20056;-77
2022/01/21 00:08:02;;;;;;;17.08;3.00;;;0.70;99.90;;;;;;5058055;28;20041;-77
2022/01/21 00:10:27;;;;;;;7.30;2.42;;;0.80;99.90;;;;;;5057487;28;20105;-77
2022/01/21 00:12:54;;;;;;;10.68;3.03;;;1.40;99.90;;;;;;5057590;28;20022;-76
2022/01/21 00:15:19;;;;;;;11.63;2.60;;;0.70;99.90;;;;;;5041598;28;20022;-76
2022/01/21 00:17:46;;;;;;;7.47;2.63;;;0.90;99.90;;;;;;5013552;28;20030;-77
2022/01/21 00:31:09;;;;;;;9.02;2.60;;;0.90;99.90;;;;;;5014704;28;20104;-76
2022/01/21 00:33:35;;;;;;;8.40;3.13;;;0.90;99.90;;;;;;5014294;28;20456;-77
2022/01/21 00:36:01;;;;;;;11.93;3.10;;;0.90;99.90;;;;;;5013613;28;20040;-77
2022/01/21 00:38:29;;;;;;;15.30;3.15;;;2.60;99.90;;;;;;5011913;28;20483;-77
2022/01/21 00:40:59;;;;;;;9.48;2.95;;;1.80;99.90;;;;;;5013074;28;20029;-77
2022/01/21 00:43:32;;;;;;;10.75;2.88;;;0.90;99.90;;;;;;5013392;28;20441;-77
2022/01/21 00:46:00;;;;;;;11.68;3.28;;;1.50;99.90;;;;;;5029347;28;20035;-77
2022/01/21 00:48:27;;;;;;;9.30;2.53;;;1.90;99.90;;;;;;5035761;28;20057;-77
2022/01/21 00:50:53;;;;;;;9.65;2.75;;;0.90;99.90;;;;;;5035957;28;20033;-77
2022/01/21 00:53:19;;;;;;;10.07;2.75;;;0.90;99.90;;;;;;5034635;28;20029;-77
2022/01/21 00:55:45;;;;;;;9.32;2.63;;;1.00;99.90;;;;;;5018849;28;20507;-77
2022/01/21 00:58:11;;;;;;;10.85;2.58;;;1.10;99.90;;;;;;5030471;28;20030;-77
2022/01/21 01:00:36;;;;;;;8.93;2.80;;;1.10;99.90;;;;;;5031899;28;20025;-77
2022/01/21 01:03:03;;;;;;;9.98;2.75;;;0.90;99.90;;;;;;5032934;28;20713;-77
2022/01/21 01:05:29;;;;;;;6.65;2.28;;;0.90;99.90;;;;;;5018002;28;20060;-77
2022/01/21 01:07:55;;;;;;;7.95;2.30;;;0.90;99.90;;;;;;5013322;28;20026;-77
2022/01/21 01:10:41;;;;;;;14.60;2.47;;;0.80;99.90;;;;;;5012367;28;20041;-76
2022/01/21 01:21:22;;;;;;;9.68;2.60;;;1.00;99.90;;;;;;5012616;28;20083;-76
2022/01/21 01:29:18;;;;;;;10.52;2.72;;;0.80;99.90;;;;;;5032058;28;20029;-77
2022/01/21 01:31:44;;;;;;;9.32;2.80;;;0.70;99.90;;;;;;5035610;28;20047;-77
2022/01/21 01:34:10;;;;;;;10.40;2.92;;;0.80;99.90;;;;;;5027187;28;20223;-77
2022/01/21 01:36:36;;;;;;;10.07;2.47;;;0.80;99.90;;;;;;5011603;28;20034;-77
2022/01/21 01:41:55;;;;;;;6.00;2.80;;;0.70;99.90;;;;;;5012615;28;20022;-76
2022/01/21 01:49:49;;;;;;;11.60;2.67;;;0.60;99.90;;;;;;5035730;28;20040;-77
2022/01/21 01:52:17;;;;;;;10.38;3.72;;;0.70;99.90;;;;;;5036291;28;20118;-77
2022/01/21 01:54:52;;;;;;;9.25;2.15;;;0.70;99.90;;;;;;5032495;28;20044;-77
2022/01/21 01:57:19;;;;;;;8.55;2.90;;;0.70;99.90;;;;;;5033546;28;20033;-77
2022/01/21 01:59:44;;;;;;;8.98;2.83;;;0.70;99.90;;;;;;5031136;28;20076;-76
2022/01/21 02:02:12;;;;;;;7.35;2.42;;;0.70;99.90;;;;;;5035080;28;20033;-77
2022/01/21 02:04:39;;;;;;;9.00;2.72;;;0.60;99.90;;;;;;5033319;28;20036;-77
2022/01/21 02:07:05;;;;;;;7.13;2.58;;;0.60;99.90;;;;;;5035713;28;20021;-76
2022/01/21 02:09:31;;;;;;;12.90;2.47;;;0.60;99.90;;;;;;5035054;28;20402;-77
2022/01/21 02:11:57;;;;;;;19.17;3.75;;;0.50;99.90;;;;;;5035664;28;20025;-77
2022/01/21 02:14:29;;;;;;;7.35;2.83;;;0.50;99.90;;;;;;5030996;28;20075;-77
2022/01/21 02:22:15;;;;;;;9.55;2.92;;;0.10;99.90;;;;;;5026355;28;20087;-77
2022/01/21 02:24:57;;;;;;;11.85;3.05;;;0.10;99.90;;;;;;5021635;28;20034;-77
2022/01/21 02:27:22;;;;;;;8.32;2.28;;;1.50;99.90;;;;;;5035672;28;20095;-77
2022/01/21 02:29:54;;;;;;;11.68;3.05;;;0.60;99.90;;;;;;5034382;28;20432;-77
2022/01/21 02:32:21;;;;;;;13.32;3.20;;;0.50;99.90;;;;;;5035325;28;20044;-77
2022/01/21 02:34:48;;;;;;;14.57;3.15;;;0.50;99.90;;;;;;5027597;28;20034;-77
2022/01/21 02:37:19;;;;;;;5.38;3.00;;;0.50;99.90;;;;;;5015725;28;20021;-77
2022/01/21 02:39:46;;;;;;;8.63;2.90;;;0.40;99.90;;;;;;5015028;28;20026;-77
2022/01/21 02:42:11;;;;;;;9.20;2.90;;;1.20;99.90;;;;;;5015951;28;20029;-77
2022/01/21 02:44:38;;;;;;;11.02;3.25;;;0.10;99.90;;;;;;5019100;28;20556;-78
2022/01/21 02:47:05;;;;;;;10.50;3.58;;;0.30;99.90;;;;;;5020367;28;20100;-77
2022/01/21 02:49:31;;;;;;;12.07;3.30;;;0.10;99.90;;;;;;5018689;28;20514;-77
2022/01/21 02:52:01;;;;;;;14.57;2.88;;;0.00;99.90;;;;;;5018031;28;20030;-77
2022/01/21 02:54:30;;;;;;;5.50;2.63;;;0.10;99.90;;;;;;5013764;28;20026;-77
2022/01/21 02:56:57;;;;;;;9.40;2.88;;;0.10;99.90;;;;;;5035040;28;20459;-77
2022/01/21 02:59:22;;;;;;;11.40;3.53;;;-0.20;99.90;;;;;;5032685;28;20441;-77
2022/01/21 03:01:49;;;;;;;10.60;2.95;;;-0.30;99.90;;;;;;5034886;28;20083;-77
2022/01/21 03:04:23;;;;;;;11.05;2.85;;;-0.50;99.90;;;;;;5027896;28;20026;-77
2022/01/21 03:06:49;;;;;;;9.00;3.05;;;-0.30;99.90;;;;;;5014893;28;20029;-77
2022/01/21 03:09:15;;;;;;;10.82;2.72;;;-0.30;99.90;;;;;;5014020;28;20038;-77
2022/01/21 03:11:40;;;;;;;10.48;2.88;;;0.30;99.90;;;;;;4996696;28;20084;-77
2022/01/21 03:14:06;;;;;;;5.80;2.70;;;-0.30;99.90;;;;;;5018099;28;20030;-77
2022/01/21 03:16:32;;;;;;;8.25;2.33;;;-0.50;99.90;;;;;;5032987;28;20505;-77
2022/01/21 03:18:58;;;;;;;11.35;2.65;;;-0.60;99.90;;;;;;5032809;28;20060;-77
2022/01/21 03:21:23;;;;;;;11.13;3.60;;;-0.90;99.90;;;;;;5034489;28;20026;-77
2022/01/21 03:23:52;;;;;;;16.38;8.40;;;1.50;99.90;;;;;;5032314;28;20505;-77
2022/01/21 03:26:21;;;;;;;13.73;4.00;;;-0.90;99.90;;;;;;5014766;28;20057;-77
2022/01/21 03:28:49;;;;;;;10.27;3.63;;;-1.00;99.90;;;;;;5024014;28;20075;-77
2022/01/21 03:31:15;;;;;;;10.00;3.15;;;-0.80;99.90;;;;;;5034105;28;20096;-78
2022/01/21 03:33:41;;;;;;;13.75;3.97;;;-0.80;99.90;;;;;;5034334;28;20072;-77
2022/01/21 03:36:07;;;;;;;14.25;3.58;;;-0.80;99.90;;;;;;5033913;28;20017;-77
2022/01/21 03:38:33;;;;;;;9.07;3.33;;;-0.50;99.90;;;;;;5032630;28;20445;-77
2022/01/21 03:40:59;;;;;;;10.27;2.88;;;-0.70;99.90;;;;;;5033636;28;20025;-77
2022/01/21 03:43:25;;;;;;;11.93;3.33;;;-0.80;99.90;;;;;;5034749;28;20148;-78
2022/01/21 03:45:52;;;;;;;10.93;3.40;;;-0.80;99.90;;;;;;5033019;28;20092;-78
2022/01/21 03:48:18;;;;;;;18.23;3.70;;;-0.90;99.90;;;;;;5033980;28;20375;-78
2022/01/21 03:50:45;;;;;;;11.25;3.25;;;-0.90;99.90;;;;;;5033984;28;20041;-77
2022/01/21 03:53:11;;;;;;;6.68;2.75;;;0.70;99.90;;;;;;5034612;28;20029;-77
2022/01/21 03:55:37;;;;;;;11.45;3.78;;;-0.70;99.90;;;;;;5027188;28;20395;-78
2022/01/21 03:58:05;;;;;;;6.82;2.97;;;-0.60;99.90;;;;;;5017750;28;20486;-78
2022/01/21 04:00:35;;;;;;;10.70;3.22;;;-0.50;99.90;;;;;;5032031;28;20021;-78
2022/01/21 04:03:03;;;;;;;8.70;2.78;;;-0.40;99.90;;;;;;5034702;28;20492;-78
2022/01/21 04:05:30;;;;;;;17.45;3.17;;;-0.40;99.90;;;;;;5019853;28;20026;-78
2022/01/21 04:07:56;;;;;;;11.35;3.58;;;-0.60;99.90;;;;;;5014898;28;20491;-78
2022/01/21 04:10:22;;;;;;;15.90;3.72;;;-0.40;99.90;;;;;;5013892;28;20080;-78
2022/01/21 04:12:48;;;;;;;10.40;2.72;;;-0.20;99.90;;;;;;5014496;28;20029;-78
2022/01/21 04:15:14;;;;;;;14.43;3.65;;;1.90;99.90;;;;;;5024404;28;20038;-78
2022/01/21 04:17:40;;;;;;;9.77;3.33;;;-0.60;99.90;;;;;;5034472;28;20028;-78
2022/01/21 04:20:08;;;;;;;18.08;4.00;;;-0.70;99.90;;;;;;5036001;28;20104;-78
2022/01/21 04:22:34;;;;;;;10.02;3.90;;;-0.70;99.90;;;;;;5049059;23;20033;-76
2022/01/21 04:25:00;;;;;;;13.50;3.45;;;-0.80;99.90;;;;;;5058312;28;20400;-76
2022/01/21 04:27:27;;;;;;;8.00;3.40;;;-0.80;99.90;;;;;;5071207;28;20028;-76
2022/01/21 04:29:53;;;;;;;9.57;3.78;;;-0.80;99.90;;;;;;5054021;28;20021;-75
2022/01/21 04:32:19;;;;;;;11.68;3.83;;;-0.70;99.90;;;;;;5052974;28;20104;-75
2022/01/21 04:34:46;;;;;;;7.25;2.97;;;-0.80;99.90;;;;;;5056148;28;20116;-75
2022/01/21 04:37:13;;;;;;;13.23;4.65;;;-0.90;99.90;;;;;;5052678;28;20032;-76
2022/01/21 04:39:55;;;;;;;11.02;3.20;;;-1.00;99.90;;;;;;5051860;28;20512;-76
2022/01/21 04:47:39;;;;;;;12.88;3.50;;;-0.90;99.90;;;;;;5072638;28;20703;-76
2022/01/21 04:50:10;;;;;;;14.65;3.22;;;-0.80;99.90;;;;;;5071642;28;20056;-76
2022/01/21 04:52:36;;;;;;;10.80;3.53;;;-0.80;99.90;;;;;;5072182;28;20476;-76
2022/01/21 04:55:03;;;;;;;6.57;2.72;;;-0.90;99.90;;;;;;5056926;28;20059;-77
2022/01/21 04:57:29;;;;;;;15.88;3.45;;;-1.20;99.90;;;;;;5070079;28;20041;-77
2022/01/21 04:59:55;;;;;;;16.05;3.65;;;-1.20;99.90;;;;;;5071309;28;20020;-77
2022/01/21 05:02:23;;;;;;;17.00;3.78;;;0.80;99.90;;;;;;5072068;28;20040;-77
2022/01/21 05:04:48;;;;;;;11.32;3.53;;;0.60;99.90;;;;;;5062626;28;20029;-77
2022/01/21 05:07:19;;;;;;;16.35;3.72;;;-0.80;99.90;;;;;;5051906;28;20025;-77
2022/01/21 05:09:45;;;;;;;13.35;3.22;;;-1.00;99.90;;;;;;5051375;28;20025;-77
2022/01/21 05:12:13;;;;;;;10.88;3.72;;;-1.00;99.90;;;;;;5050915;28;20500;-76
2022/01/21 05:15:05;;;;;;;12.38;4.20;;;-1.20;99.90;;;;;;5052888;28;20033;-77
2022/01/21 05:17:31;;;;;;;7.57;3.65;;;-1.10;99.90;;;;;;5070523;28;20025;-77
2022/01/21 05:19:57;;;;;;;10.20;2.80;;;-1.30;99.90;;;;;;5071238;28;20086;-77
2022/01/21 05:22:22;;;;;;;13.85;4.75;;;-1.60;99.90;;;;;;5071732;28;20461;-76
2022/01/21 05:24:49;;;;;;;18.70;4.47;;;-1.40;99.90;;;;;;5069902;28;20036;-77
2022/01/21 05:27:15;;;;;;;15.43;3.88;;;-1.30;99.90;;;;;;5051780;28;20031;-77
2022/01/21 05:29:41;;;;;;;16.17;4.03;;;-1.10;99.90;;;;;;5066734;28;20481;-77
2022/01/21 05:32:08;;;;;;;10.57;4.00;;;-1.10;99.90;;;;;;5071424;28;20067;-77
2022/01/21 05:34:34;;;;;;;18.10;4.03;;;-1.20;99.90;;;;;;5071590;28;20028;-77
2022/01/21 05:37:00;;;;;;;9.60;3.80;;;-1.30;99.90;;;;;;5063685;28;20028;-77
2022/01/21 05:39:25;;;;;;;12.02;4.28;;;-1.40;99.90;;;;;;5075253;28;20034;-77
2022/01/21 05:41:52;;;;;;;18.38;4.68;;;-1.60;99.90;;;;;;5076001;28;20060;-77
2022/01/21 05:47:01;;;;;;;27.20;12.10;;;-1.60;99.90;;;;;;5073772;28;20040;-76
2022/01/21 05:49:30;;;;;;;14.80;7.00;;;-1.50;99.90;;;;;;5074997;28;20090;-76
2022/01/21 05:52:03;;;;;;;22.55;6.05;;;-1.40;99.90;;;;;;5075476;28;20457;-77
2022/01/21 05:54:30;;;;;;;16.00;4.40;;;-1.30;99.90;;;;;;5070560;28;20083;-77
2022/01/21 05:56:56;;;;;;;10.05;3.95;;;-1.20;99.90;;;;;;5055531;28;20485;-76
2022/01/21 05:59:21;;;;;;;11.25;4.05;;;-1.20;99.90;;;;;;5067456;28;20033;-76
2022/01/21 06:01:47;;;;;;;13.90;4.35;;;-1.40;99.90;;;;;;5073878;28;20388;-77
2022/01/21 06:04:13;;;;;;;10.73;4.40;;;-1.70;99.90;;;;;;5073750;28;20495;-76
2022/01/21 06:06:39;;;;;;;10.88;3.92;;;-1.50;99.90;;;;;;5061847;28;20507;-76
2022/01/21 06:09:06;;;;;;;13.32;4.15;;;-1.30;99.90;;;;;;5074486;28;20028;-76
2022/01/21 06:11:32;;;;;;;21.58;5.25;;;-1.30;99.90;;;;;;5075120;28;20093;-77
2022/01/21 06:13:59;;;;;;;14.45;6.07;;;-1.10;99.90;;;;;;5074581;28;20481;-77
2022/01/21 06:16:25;;;;;;;14.15;5.03;;;0.10;99.90;;;;;;5074309;28;20040;-77
2022/01/21 06:18:51;;;;;;;19.88;6.53;;;-1.00;99.90;;;;;;5074416;28;20040;-77
2022/01/21 06:21:16;;;;;;;14.75;5.32;;;-1.00;99.90;;;;;;5075361;28;20025;-78
2022/01/21 06:23:42;;;;;;;14.30;5.78;;;-0.90;99.90;;;;;;5067609;28;20546;-77
2022/01/21 06:26:08;;;;;;;18.83;5.20;;;-0.90;99.90;;;;;;5062208;28;20028;-76
2022/01/21 06:28:34;;;;;;;13.27;5.45;;;-0.90;99.90;;;;;;5057696;28;20061;-77
2022/01/21 06:31:00;;;;;;;15.75;4.97;;;-0.60;99.90;;;;;;5054737;28;20063;-76
2022/01/21 06:33:26;;;;;;;19.80;4.68;;;-0.50;99.90;;;;;;5054753;28;20434;-76
2022/01/21 06:35:52;;;;;;;23.65;6.03;;;1.00;99.90;;;;;;5062662;28;20033;-76
2022/01/21 06:38:20;;;;;;;14.43;4.80;;;-0.40;99.90;;;;;;5054739;28;20029;-76
2022/01/21 06:40:46;;;;;;;11.43;4.18;;;-0.60;99.90;;;;;;5054391;28;20021;-76
2022/01/21 06:43:12;;;;;;;10.95;4.57;;;-0.60;99.90;;;;;;5054549;28;20025;-77
2022/01/21 06:45:39;;;;;;;11.80;4.90;;;-0.60;99.90;;;;;;5056586;28;20029;-77
2022/01/21 06:48:04;;;;;;;9.98;4.22;;;-0.60;99.90;;;;;;5054305;28;20036;-77
2022/01/21 06:50:40;;;;;;;44.10;17.08;;;-0.50;99.90;;;;;;5053929;28;20029;-77
2022/01/21 06:53:07;;;;;;;24.75;9.23;;;-0.70;99.90;;;;;;5053806;28;20029;-76
2022/01/21 06:55:32;;;;;;;14.43;6.20;;;-0.60;99.90;;;;;;5062303;28;20025;-77
2022/01/21 06:57:58;;;;;;;13.52;6.03;;;-0.70;99.90;;;;;;5061699;28;20039;-76
2022/01/21 07:00:25;;;;;;;19.00;5.10;;;-0.70;99.90;;;;;;5071076;28;20025;-76
2022/01/21 07:02:52;;;;;;;13.32;5.00;;;0.50;99.90;;;;;;5074273;28;20025;-76
2022/01/21 07:05:20;;;;;;;19.10;5.43;;;-0.90;99.90;;;;;;5059788;28;20029;-76
2022/01/21 07:07:45;;;;;;;12.95;4.72;;;-0.90;99.90;;;;;;5054425;28;20090;-76
2022/01/21 07:10:14;;;;;;;13.50;4.65;;;1.00;99.90;;;;;;5053827;28;20029;-76
2022/01/21 07:12:41;;;;;;;10.68;4.50;;;-0.70;99.90;;;;;;5053980;28;20029;-76
2022/01/21 07:15:08;;;;;;;12.18;4.85;;;-0.50;99.90;;;;;;5053957;28;20090;-76
2022/01/21 07:17:35;;;;;;;13.82;4.55;;;-0.40;99.90;;;;;;5060585;28;20020;-76
2022/01/21 07:20:01;;;;;;;13.25;5.43;;;-0.30;99.90;;;;;;5093883;28;20048;-76
2022/01/21 07:22:27;;;;;;;13.77;3.97;;;-0.30;99.90;;;;;;5093996;28;20036;-76
2022/01/21 07:24:52;;;;;;;14.45;4.25;;;-0.20;99.90;;;;;;5079889;28;20036;-77
2022/01/21 07:27:18;;;;;;;14.10;4.20;;;-0.20;99.90;;;;;;5053869;28;20028;-75
2022/01/21 07:29:44;;;;;;;16.95;3.95;;;-0.20;99.90;;;;;;5087750;28;20047;-75
2022/01/21 07:32:09;;;;;;;17.88;4.43;;;-0.20;99.90;;;;;;5093766;28;20024;-76
2022/01/21 07:34:35;;;;;;;9.98;3.80;;;-0.10;99.90;;;;;;5084837;28;20503;-76
2022/01/21 07:37:02;;;;;;;14.57;4.40;;;-0.10;99.90;;;;;;5073685;28;20031;-76
2022/01/21 07:39:28;;;;;;;13.65;4.55;;;-0.20;99.90;;;;;;5073377;28;20024;-76
2022/01/21 07:41:54;;;;;;;11.77;3.70;;;-0.10;99.90;;;;;;5073563;28;20035;-76
2022/01/21 07:44:19;;;;;;;15.13;3.80;;;0.00;99.90;;;;;;5073480;28;20036;-76
2022/01/21 07:46:46;;;;;;;15.10;4.50;;;0.00;99.90;;;;;;5073284;28;20036;-77
2022/01/21 07:49:12;;;;;;;12.90;3.85;;;0.10;99.90;;;;;;5072909;28;20024;-77
2022/01/21 07:51:38;;;;;;;15.63;4.10;;;0.10;99.90;;;;;;5073180;28;20036;-77
2022/01/21 07:54:05;;;;;;;13.25;4.35;;;0.10;99.90;;;;;;5069374;28;20382;-76
2022/01/21 07:56:34;;;;;;;13.25;3.92;;;0.30;99.90;;;;;;5073597;28;20420;-76
2022/01/21 07:59:07;;;;;;;10.85;4.13;;;0.40;99.90;;;;;;5071993;28;20051;-76
2022/01/21 08:01:33;;;;;;;12.13;4.03;;;0.30;99.90;;;;;;5073261;28;20032;-77
2022/01/21 08:03:59;;;;;;;9.02;3.47;;;0.40;99.90;;;;;;5072497;28;20028;-77
2022/01/21 08:06:25;;;;;;;11.35;4.63;;;0.40;99.90;;;;;;5094500;28;20025;-76
2022/01/21 08:08:53;;;;;;;12.07;3.63;;;0.40;99.90;;;;;;5094818;28;20035;-75
2022/01/21 08:11:18;;;;;;;9.38;3.88;;;0.40;99.90;;;;;;5093912;28;20035;-76
2022/01/21 08:13:44;;;;;;;10.82;4.00;;;0.50;99.90;;;;;;5094933;28;20036;-76
2022/01/21 08:16:10;;;;;;;13.23;4.38;;;0.50;99.90;;;;;;5094252;28;20542;-77
2022/01/21 08:18:36;;;;;;;13.52;3.38;;;0.30;99.90;;;;;;5105588;28;20035;-76
2022/01/21 08:21:02;;;;;;;12.23;4.13;;;0.30;99.90;;;;;;5114210;28;20027;-76
2022/01/21 08:23:28;;;;;;;9.57;3.97;;;0.60;99.90;;;;;;5115068;28;20036;-76
2022/01/21 08:25:54;;;;;;;11.48;3.55;;;0.50;99.90;;;;;;5114321;28;20038;-75
2022/01/21 08:28:19;;;;;;;11.43;3.97;;;0.60;99.90;;;;;;5116370;28;20024;-76
2022/01/21 08:30:45;;;;;;;11.27;3.50;;;0.60;99.90;;;;;;5116227;28;20036;-76
2022/01/21 08:33:11;;;;;;;20.48;4.40;;;1.20;99.90;;;;;;5115270;28;20016;-76
2022/01/21 08:35:37;;;;;;;9.05;4.07;;;2.10;99.90;;;;;;5094597;28;20120;-76
2022/01/21 08:38:04;;;;;;;12.68;3.85;;;0.60;99.90;;;;;;5092711;28;20048;-77
2022/01/21 08:40:30;;;;;;;10.68;3.85;;;0.80;99.90;;;;;;5093203;28;20074;-76
2022/01/21 08:42:56;;;;;;;21.05;4.47;;;1.10;99.90;;;;;;5093136;28;20481;-76
2022/01/21 08:45:22;;;;;;;12.30;3.88;;;1.50;99.90;;;;;;5093183;28;20043;-77
2022/01/21 08:47:49;;;;;;;15.27;4.45;;;1.10;99.90;;;;;;5093295;28;20399;-77
2022/01/21 08:50:18;;;;;;;12.38;4.20;;;1.10;99.90;;;;;;5092980;28;20034;-77
2022/01/21 08:52:45;;;;;;;10.07;3.50;;;1.20;99.90;;;;;;5093034;28;20388;-77
2022/01/21 08:55:13;;;;;;;13.57;3.67;;;1.40;99.90;;;;;;5092748;28;20035;-76
2022/01/21 08:57:41;;;;;;;12.27;3.90;;;1.70;99.90;;;;;;5067455;28;20616;-76
2022/01/21 09:00:20;;;;;;;17.13;4.22;;;2.70;99.90;;;;;;5072163;28;20173;-77
2022/01/21 09:02:46;;;;;;;9.93;3.45;;;1.70;99.90;;;;;;5071636;28;20552;-77
2022/01/21 09:05:13;;;;;;;7.68;2.63;;;3.80;99.90;;;;;;5074139;28;20040;-77
2022/01/21 09:07:38;;;;;;;8.27;3.63;;;3.10;99.90;;;;;;5072765;28;20500;-77
2022/01/21 09:10:06;;;;;;;9.82;3.83;;;1.70;99.90;;;;;;5071764;28;20040;-77
2022/01/21 09:12:32;;;;;;;11.02;3.78;;;1.80;99.90;;;;;;5072154;28;20028;-77
2022/01/21 09:14:58;;;;;;;16.00;4.88;;;1.80;99.90;;;;;;5071709;28;20037;-77
2022/01/21 09:17:24;;;;;;;12.52;4.35;;;3.30;99.90;;;;;;5072919;28;20487;-77
2022/01/21 09:19:50;;;;;;;15.73;3.97;;;2.00;99.90;;;;;;5093361;28;20024;-77
2022/01/21 09:22:15;;;;;;;12.60;3.67;;;2.00;99.90;;;;;;5081268;28;20493;-77
2022/01/21 09:24:41;;;;;;;10.38;3.55;;;2.10;99.90;;;;;;5072028;28;20075;-78
2022/01/21 09:27:08;;;;;;;13.50;4.35;;;3.90;99.90;;;;;;5078444;28;20394;-76
2022/01/21 09:29:34;;;;;;;10.15;3.55;;;3.20;99.90;;;;;;5087708;28;20130;-77
2022/01/21 09:32:00;;;;;;;12.10;3.80;;;2.30;99.90;;;;;;5079331;28;20024;-77
2022/01/21 09:34:28;;;;;;;11.95;3.50;;;2.00;99.90;;;;;;5069944;28;20119;-77
2022/01/21 09:36:55;;;;;;;10.75;3.38;;;2.40;99.90;;;;;;5071967;28;20102;-77
2022/01/21 09:39:21;;;;;;;8.23;2.95;;;2.20;99.90;;;;;;5072492;28;20489;-77
2022/01/21 09:41:48;;;;;;;9.82;3.20;;;3.80;99.90;;;;;;5072926;28;20032;-77
2022/01/21 09:44:16;;;;;;;13.20;3.05;;;2.40;99.90;;;;;;5067129;28;20025;-77
2022/01/21 09:46:46;;;;;;;17.88;3.88;;;2.40;99.90;;;;;;5067876;28;20133;-77
2022/01/21 09:49:27;;;;;;;12.00;3.92;;;2.60;99.90;;;;;;5071267;28;20036;-77
2022/01/21 09:51:55;;;;;;;10.52;3.58;;;3.50;99.90;;;;;;5071891;28;20044;-76
2022/01/21 09:54:26;;;;;;;9.05;3.50;;;2.70;99.90;;;;;;5071616;28;20036;-76
2022/01/21 09:56:57;;;;;;;8.13;3.20;;;3.20;99.90;;;;;;5069843;28;20511;-77
2022/01/21 09:59:25;;;;;;;13.93;3.92;;;5.30;99.90;;;;;;5070031;28;20091;-77
2022/01/21 10:01:56;;;;;;;12.50;3.55;;;2.90;99.90;;;;;;5070161;28;20448;-77
2022/01/21 10:04:27;;;;;;;11.82;3.50;;;3.00;99.90;;;;;;5069615;28;20036;-76
2022/01/21 10:06:55;;;;;;;11.50;3.35;;;2.90;99.90;;;;;;5052053;28;20489;-76
2022/01/21 10:09:22;;;;;;;16.45;4.05;;;4.70;99.90;;;;;;5054311;28;20025;-76
2022/01/21 10:11:49;;;;;;;11.05;4.35;;;3.20;99.90;;;;;;5070440;28;20468;-77
2022/01/21 10:14:36;;;;;;;13.60;3.83;;;3.20;99.90;;;;;;5060704;28;20057;-76
2022/01/21 10:17:02;;;;;;;11.43;3.30;;;3.10;99.90;;;;;;5052736;28;20033;-76
2022/01/21 10:19:45;;;;;;;14.75;3.63;;;3.20;99.90;;;;;;5051802;28;20083;-77
2022/01/21 10:22:17;;;;;;;;;;;3.20;99.90;;;;;;5054901;28;20052;-76
2022/01/21 10:27:26;;;;;;;10.13;3.33;;;3.30;99.90;;;;;;5073381;28;20463;-77
2022/01/21 10:29:53;;;;;;;10.15;3.33;;;3.20;99.90;;;;;;5057666;28;20053;-76
2022/01/21 10:32:39;;;;;;;10.63;3.00;;;3.20;99.90;;;;;;5055832;28;20035;-77
2022/01/21 10:35:31;;;;;;;11.23;2.83;;;3.20;99.90;;;;;;5064751;28;20440;-77
2022/01/21 10:38:17;;;;;;;10.27;3.25;;;3.40;99.90;;;;;;5071083;28;20045;-77
2022/01/21 10:40:43;;;;;;;7.85;3.03;;;3.80;99.90;;;;;;5053433;28;20023;-77
2022/01/21 10:43:13;;;;;;;8.93;3.08;;;4.20;99.90;;;;;;5054244;28;20037;-76
2022/01/21 10:46:13;;;;;;;10.95;2.97;;;3.90;99.90;;;;;;5058239;28;20029;-79
2022/01/21 10:48:59;;;;;;;12.32;3.35;;;4.00;99.90;;;;;;5026836;28;20337;-75
2022/01/21 10:51:33;;;;;;;12.43;3.10;;;6.10;99.90;;;;;;5035918;28;20033;-79
2022/01/21 10:54:18;;;;;;;13.88;2.45;;;4.10;99.90;;;;;;5054368;28;20029;-79
2022/01/21 10:57:07;;;;;;;11.82;2.88;;;4.10;99.90;;;;;;5038874;28;20041;-77
2022/01/21 10:59:54;;;;;;;11.90;3.03;;;3.90;99.90;;;;;;5053709;28;20029;-79
2022/01/21 11:02:31;;;;;;;8.52;3.65;;;3.70;99.90;;;;;;5062820;28;20069;-78
2022/01/21 11:05:00;;;;;;;15.98;2.88;;;4.20;99.90;;;;;;5061640;28;20516;-77
2022/01/21 11:07:48;;;;;;;9.38;3.55;;;3.60;99.90;;;;;;5045866;28;20029;-79
2022/01/21 11:10:35;;;;;;;12.35;4.13;;;3.60;99.90;;;;;;5052164;28;20062;-79
2022/01/21 11:13:01;;;;;;;11.90;3.10;;;3.70;99.90;;;;;;5042215;28;20036;-77
2022/01/21 11:15:42;;;;;;;7.32;2.75;;;3.90;99.90;;;;;;5054128;28;20056;-77
2022/01/21 11:18:10;;;;;;;8.32;3.50;;;4.10;99.90;;;;;;5047031;28;20486;-77
2022/01/21 11:20:40;;;;;;;8.52;3.80;;;6.00;99.90;;;;;;5037561;28;20022;-77
2022/01/21 11:23:08;;;;;;;11.68;3.00;;;4.40;99.90;;;;;;5039683;28;20535;-77
2022/01/21 11:25:41;;;;;;;12.20;3.88;;;4.30;99.90;;;;;;5045350;28;20398;-76
2022/01/21 11:28:07;;;;;;;7.43;2.65;;;4.30;99.90;;;;;;5052542;28;20017;-76
2022/01/21 11:30:32;;;;;;;11.07;3.17;;;4.40;99.90;;;;;;5053142;28;20070;-76
2022/01/21 11:32:58;;;;;;;6.82;2.97;;;4.70;99.90;;;;;;5050130;28;20063;-76
2022/01/21 11:35:26;;;;;;;8.73;2.60;;;4.90;99.90;;;;;;5045733;28;20024;-76
2022/01/21 11:37:51;;;;;;;6.85;2.80;;;7.50;99.90;;;;;;5055296;28;20029;-77
2022/01/21 11:40:17;;;;;;;9.30;2.45;;;6.30;99.90;;;;;;5020618;28;20025;-76
2022/01/21 11:42:45;;;;;;;15.18;3.13;;;7.20;99.90;;;;;;5041462;28;20036;-77
2022/01/21 11:45:32;;;;;;;7.07;2.50;;;5.50;99.90;;;;;;5043904;28;20035;-76
2022/01/21 11:50:40;;;;;;;15.98;3.35;;;5.90;99.90;;;;;;5041129;28;20037;-76
2022/01/21 11:53:06;;;;;;;6.95;2.42;;;5.90;99.90;;;;;;5033362;28;20037;-77
2022/01/21 11:55:35;;;;;;;8.40;2.80;;;6.00;99.90;;;;;;5038812;28;20111;-76
2022/01/21 11:58:16;;;;;;;11.90;3.28;;;6.80;99.90;;;;;;5053339;28;20072;-77
2022/01/21 12:00:44;;;;;;;8.27;2.63;;;6.30;99.90;;;;;;5052765;28;20049;-76
2022/01/21 12:03:09;;;;;;;8.57;2.17;;;5.50;99.90;;;;;;5051494;28;20037;-76
2022/01/21 12:05:36;;;;;;;9.07;2.53;;;5.30;99.90;;;;;;5052363;28;20031;-76
2022/01/21 12:08:06;;;;;;;10.35;2.42;;;6.30;99.90;;;;;;5046142;28;20029;-76
2022/01/21 12:10:33;;;;;;;8.55;2.75;;;5.60;99.90;;;;;;5057528;28;20092;-77
2022/01/21 12:13:06;;;;;;;7.63;2.40;;;7.40;99.90;;;;;;5063895;28;20037;-77
2022/01/21 12:20:49;;;;;;;10.90;2.85;;;4.80;99.90;;;;;;5042056;28;20022;-77
2022/01/21 12:23:21;;;;;;;9.60;2.35;;;5.30;99.90;;;;;;5040631;28;20021;-79
2022/01/21 12:26:09;;;;;;;12.17;2.57;;;5.10;99.90;;;;;;5054689;28;20037;-79
2022/01/21 12:28:35;;;;;;;9.65;2.55;;;6.90;99.90;;;;;;5050630;28;20280;-79
2022/01/21 12:31:02;;;;;;;11.82;2.65;;;6.80;99.90;;;;;;5049107;28;20021;-78
2022/01/21 12:34:02;;;;;;;12.40;3.10;;;4.90;99.90;;;;;;5050084;28;20029;-82
2022/01/21 12:36:32;;;;;;;14.63;2.80;;;4.90;99.90;;;;;;5063679;28;20037;-79
2022/01/21 12:41:24;;;;;;;9.30;2.40;;;5.00;99.90;;;;;;5049625;28;20026;-78
2022/01/21 12:43:51;;;;;;;11.68;2.53;;;5.20;99.90;;;;;;5048023;28;20040;-78
2022/01/21 12:46:22;;;;;;;8.18;2.22;;;5.30;99.90;;;;;;5052096;28;20029;-79
2022/01/21 12:48:49;;;;;;;6.22;2.30;;;5.30;99.90;;;;;;5051601;28;20068;-78
2022/01/21 12:51:33;;;;;;;7.93;2.25;;;6.00;99.90;;;;;;5051543;28;20028;-79
2022/01/21 12:56:52;;;;;;;11.18;2.22;;;7.40;99.90;;;;;;5048717;28;20041;-79
2022/01/21 12:59:23;;;;;;;6.60;2.30;;;5.30;99.90;;;;;;5049193;28;20056;-79
2022/01/21 13:01:51;;;;;;;7.75;1.95;;;5.40;99.90;;;;;;5050211;28;20028;-78
2022/01/21 13:04:50;;;;;;;8.38;2.17;;;5.30;99.90;;;;;;5052572;28;20386;-79
2022/01/21 13:07:45;;;;;;;8.70;1.90;;;5.30;99.90;;;;;;5050869;28;20166;-79
2022/01/21 13:10:29;;;;;;;9.65;2.35;;;6.40;99.90;;;;;;5004385;28;20053;-78
2022/01/21 13:15:52;;;;;;;8.68;2.15;;;5.00;99.90;;;;;;5056660;28;20057;-76
2022/01/21 13:18:23;;;;;;;15.43;2.38;;;5.80;99.90;;;;;;5056508;28;20056;-77
2022/01/21 13:20:52;;;;;;;11.38;1.85;;;6.60;99.90;;;;;;5069944;28;20032;-75
2022/01/21 13:23:32;;;;;;;7.18;2.20;;;7.10;99.90;;;;;;5070564;28;20025;-75
2022/01/21 13:26:16;;;;;;;8.60;2.55;;;7.00;99.90;;;;;;5057856;28;20089;-76
2022/01/21 13:29:00;;;;;;;7.32;2.30;;;8.60;99.90;;;;;;5052462;28;20382;-78
2022/01/21 13:31:28;;;;;;;7.70;2.50;;;7.50;99.90;;;;;;5051935;28;20057;-79
2022/01/21 13:34:09;;;;;;;10.43;2.00;;;7.70;99.90;;;;;;5045026;28;20102;-76
2022/01/21 13:36:40;;;;;;;9.07;2.20;;;7.60;99.90;;;;;;5032852;28;20028;-76
2022/01/21 13:39:14;;;;;;;10.30;2.50;;;7.20;99.90;;;;;;5049800;28;20021;-76
2022/01/21 13:41:48;;;;;;;10.48;2.17;;;8.20;99.90;;;;;;5054263;28;20021;-78
2022/01/21 13:44:31;;;;;;;7.57;2.53;;;7.50;99.90;;;;;;5055540;28;20036;-79
2022/01/21 13:46:59;;;;;;;7.13;2.30;;;6.70;99.90;;;;;;5053639;28;20083;-79
2022/01/21 13:49:26;;;;;;;12.55;2.45;;;6.40;99.90;;;;;;5034924;28;20121;-76
2022/01/21 13:52:04;;;;;;;7.85;2.00;;;5.90;99.90;;;;;;5052234;28;20017;-79
2022/01/21 13:54:31;;;;;;;10.77;2.38;;;5.60;99.90;;;;;;5053824;28;20119;-79
2022/01/21 13:56:57;;;;;;;11.43;3.17;;;5.40;99.90;;;;;;5056594;28;20025;-79
2022/01/21 13:59:23;;;;;;;10.45;2.33;;;5.40;99.90;;;;;;5059648;28;20033;-79
2022/01/21 14:01:48;;;;;;;13.77;3.20;;;5.30;99.90;;;;;;5060425;28;20029;-79